Time;durP1;ratioP1;P1;durP2;ratioP2;P2;SDS_P1;SDS_P2;PMS_P1;PMS_P2;Temp;Humidity;BMP_temperature;BMP_pressure;BME280_temperature;BME280_humidity;BME280_pressure;Samples;Min_cycle;Max_cycle;Signal;HPM_P1;HPM_P2
2022/11/19 00:01:22;;;;;;;12.05;6.13;;;;;;;-4.83;100.00;151351.53;4912070;29;20068;-77
2022/11/19 00:03:48;;;;;;;13.13;6.80;;;;;;;-4.80;100.00;151357.88;4901205;29;20055;-80
2022/11/19 00:06:19;;;;;;;14.07;7.32;;;;;;;-4.85;100.00;151345.22;4922252;29;20123;-80
2022/11/19 00:08:45;;;;;;;13.32;5.78;;;;;;;-4.88;100.00;151338.84;4907148;29;20036;-80
2022/11/19 00:12:53;;;;;;;11.07;6.28;;;;;;;-5.00;100.00;151309.66;4887928;29;20040;-81
2022/11/19 00:14:07;;;;;;;9.15;5.57;;;;;;;-5.16;100.00;151269.06;4908241;29;20103;-80
2022/11/19 00:16:33;;;;;;;14.32;5.82;;;;;;;-4.90;100.00;151333.75;4905317;29;20478;-80
2022/11/19 00:18:59;;;;;;;11.63;6.55;;;;;;;-5.17;100.00;151267.81;4913474;29;20064;-80
2022/11/19 00:21:26;;;;;;;11.80;6.85;;;;;;;-4.96;100.00;151319.81;4901606;29;20051;-79
2022/11/19 00:23:56;;;;;;;10.15;5.95;;;;;;;-5.14;100.00;151275.44;4899133;29;20104;-80
2022/11/19 00:26:22;;;;;;;10.63;5.85;;;;;;;-5.05;100.00;151295.72;4932340;29;20517;-78
2022/11/19 00:28:51;;;;;;;10.85;6.07;;;;;;;-5.09;100.00;151286.81;4902907;29;20044;-78
2022/11/19 00:31:18;;;;;;;13.57;6.93;;;;;;;-5.20;100.00;151260.16;4917028;29;20083;-79
2022/11/19 00:33:45;;;;;;;15.07;7.13;;;;;;;-5.21;100.00;151256.41;4886866;29;20051;-79
2022/11/19 00:36:14;;;;;;;11.77;7.07;;;;;;;-5.35;100.00;151223.44;4913708;29;20044;-79
2022/11/19 00:38:41;;;;;;;12.10;7.22;;;;;;;-5.12;100.00;151279.25;4884200;29;20037;-80
2022/11/19 00:41:08;;;;;;;16.05;7.25;;;;;;;-5.19;100.00;151262.72;4886262;29;20046;-80
2022/11/19 00:43:47;;;;;;;11.75;7.63;;;;;;;-5.33;100.00;151228.50;4913461;29;20397;-79
2022/11/19 00:46:30;;;;;;;11.48;6.75;;;;;;;-5.37;100.00;151217.06;4902089;29;20047;-80
2022/11/19 00:48:59;;;;;;;11.70;6.47;;;;;;;-5.48;100.00;151190.47;4901454;29;20036;-80
2022/11/19 00:51:28;;;;;;;13.15;6.70;;;;;;;-5.52;100.00;151181.56;4910770;29;20091;-80
2022/11/19 00:53:55;;;;;;;12.30;6.95;;;;;;;-5.41;100.00;151208.19;4902730;29;20079;-80
2022/11/19 00:56:24;;;;;;;12.18;7.22;;;;;;;-5.49;100.00;151189.16;4919234;29;20039;-80
2022/11/19 00:58:50;;;;;;;13.35;7.30;;;;;;;-5.39;100.00;151212.00;4918952;29;20035;-79
2022/11/19 01:01:22;;;;;;;11.75;6.93;;;;;;;-5.26;100.00;151244.97;4894079;29;20413;-80
2022/11/19 01:03:49;;;;;;;15.77;6.97;;;;;;;-5.51;100.00;151182.84;4893864;29;20417;-80
2022/11/19 01:06:18;;;;;;;16.63;7.68;;;;;;;-5.48;100.00;151191.72;4910637;29;20122;-80
2022/11/19 01:08:46;;;;;;;17.35;7.65;;;;;;;-5.49;100.00;151189.16;4902955;29;20044;-81
2022/11/19 01:11:14;;;;;;;11.93;7.13;;;;;;;-5.46;100.00;151195.53;4918118;29;20060;-79
2022/11/19 01:13:40;;;;;;;13.63;6.90;;;;;;;-5.38;100.00;151215.81;4903253;29;20439;-78
2022/11/19 01:16:09;;;;;;;11.35;7.05;;;;;;;-5.25;100.00;151246.28;4922573;29;20123;-78
2022/11/19 01:18:38;;;;;;;12.80;7.15;;;;;;;-5.22;100.00;151253.84;4913000;29;20538;-80
2022/11/19 01:21:08;;;;;;;12.00;6.50;;;;;;;-5.34;100.00;151225.94;4897280;29;20423;-79
2022/11/19 01:23:34;;;;;;;13.15;6.60;;;;;;;-5.43;100.00;151201.84;4893377;29;20538;-80
2022/11/19 01:26:00;;;;;;;17.00;7.45;;;;;;;-5.29;100.00;151238.63;4931386;29;20532;-80
2022/11/19 01:28:30;;;;;;;12.50;7.03;;;;;;;-5.44;100.00;151199.28;4903377;29;20067;-79
2022/11/19 01:30:56;;;;;;;14.13;7.03;;;;;;;-5.38;100.00;151214.56;4899514;29;20040;-80
2022/11/19 01:33:23;;;;;;;14.93;6.65;;;;;;;-5.53;100.00;151179.03;4902589;29;20261;-79
2022/11/19 01:35:57;;;;;;;11.93;6.93;;;;;;;-5.49;100.00;151189.16;4919502;29;20044;-81
2022/11/19 01:38:23;;;;;;;14.48;7.47;;;;;;;-5.69;100.00;151139.72;4905418;29;20058;-80
2022/11/19 01:40:54;;;;;;;12.63;7.10;;;;;;;-5.65;100.00;151147.31;4903679;29;20036;-79
2022/11/19 01:43:57;;;;;;;15.45;6.75;;;;;;;-5.68;100.00;151140.97;4887405;29;20078;-80
2022/11/19 01:46:27;;;;;;;14.40;7.60;;;;;;;-5.55;100.00;151173.94;4898176;29;20494;-79
2022/11/19 01:49:01;;;;;;;15.70;7.45;;;;;;;-5.51;100.00;151182.84;4915003;29;20047;-79
2022/11/19 01:51:32;;;;;;;12.70;7.38;;;;;;;-5.58;100.00;151166.31;4902164;29;20627;-79
2022/11/19 01:54:02;;;;;;;11.35;6.70;;;;;;;-5.79;100.00;151114.34;4896165;29;20075;-80
2022/11/19 01:56:30;;;;;;;13.18;6.85;;;;;;;-5.82;100.00;151105.47;4905297;29;20395;-80
2022/11/19 01:59:13;;;;;;;14.15;7.65;;;;;;;-5.60;100.00;151160.00;4925751;29;20043;-80
2022/11/19 02:01:43;;;;;;;12.68;6.38;;;;;;;-5.69;100.00;151138.44;4919167;29;20051;-80
2022/11/19 02:04:18;;;;;;;15.23;7.43;;;;;;;-5.78;100.00;151116.91;4919495;29;20047;-80
2022/11/19 02:06:45;;;;;;;14.10;7.97;;;;;;;-5.87;100.00;151094.06;4902972;29;20486;-80
2022/11/19 02:09:11;;;;;;;14.80;7.55;;;;;;;-5.75;100.00;151124.47;4917027;29;20036;-80
2022/11/19 02:11:40;;;;;;;15.68;7.25;;;;;;;-5.58;100.00;151166.31;4912714;29;20040;-81
2022/11/19 02:14:19;;;;;;;13.27;7.35;;;;;;;-5.60;100.00;151161.25;4903196;29;20060;-78
2022/11/19 02:16:45;;;;;;;12.10;7.18;;;;;;;-5.73;100.00;151128.28;4930554;29;20039;-80
2022/11/19 02:19:48;;;;;;;17.05;7.57;;;;;;;-5.78;100.00;151116.91;4915190;29;20051;-80
2022/11/19 02:22:35;;;;;;;14.05;7.47;;;;;;;-5.74;100.00;151127.03;4908318;29;20036;-79
2022/11/19 02:25:07;;;;;;;14.27;7.05;;;;;;;-5.90;100.00;151087.72;4902236;29;20075;-79
2022/11/19 02:28:24;;;;;;;18.42;7.13;;;;;;;-5.67;100.00;151144.78;4900085;29;20055;-79
2022/11/19 02:30:58;;;;;;;14.57;7.78;;;;;;;-5.80;100.00;151111.84;4890954;29;20455;-79
2022/11/19 02:33:55;;;;;;;15.80;6.82;;;;;;;-5.89;100.00;151090.25;4913367;29;20064;-79
2022/11/19 02:36:28;;;;;;;12.98;6.68;;;;;;;-5.85;100.00;151099.16;4875514;29;20102;-80
2022/11/19 02:39:08;;;;;;;15.27;6.65;;;;;;;-5.82;100.00;151106.78;4915146;29;20039;-80
2022/11/19 02:41:49;;;;;;;12.85;7.75;;;;;;;-5.97;100.00;151070.03;4890266;29;20495;-79
2022/11/19 02:47:08;;;;;;;13.82;7.22;;;;;;;-5.84;100.00;151101.66;4915156;29;20039;-80
2022/11/19 02:49:40;;;;;;;13.25;7.43;;;;;;;-5.96;100.00;151071.31;4881557;29;20040;-80
2022/11/19 02:52:08;;;;;;;13.25;7.45;;;;;;;-5.89;100.00;151089.00;4915489;29;20037;-78
2022/11/19 02:54:34;;;;;;;13.50;7.57;;;;;;;-5.81;100.00;151109.28;4900895;29;20040;-79
2022/11/19 02:57:02;;;;;;;14.98;7.78;;;;;;;-5.90;100.00;151086.44;4913960;29;20406;-80
2022/11/19 03:05:12;;;;;;;11.80;7.10;;;;;;;-5.91;100.00;151085.19;4929924;28;20051;-80
2022/11/19 03:07:38;;;;;;;14.60;7.47;;;;;;;-5.81;100.00;151108.03;4930392;29;20036;-80
2022/11/19 03:10:07;;;;;;;18.80;7.88;;;;;;;-5.79;100.00;151114.34;4902586;29;20048;-80
2022/11/19 03:12:42;;;;;;;16.65;7.85;;;;;;;-5.78;100.00;151115.59;4905472;29;20044;-79
2022/11/19 03:18:38;;;;;;;15.93;7.78;;;;;;;-5.84;100.00;151100.41;4924145;29;20051;-80
2022/11/19 03:21:27;;;;;;;17.35;8.60;;;;;;;-5.69;100.00;151139.72;4904824;29;20039;-79
2022/11/19 03:24:01;;;;;;;14.70;8.00;;;;;;;-5.84;100.00;151101.66;4913410;29;20041;-79
2022/11/19 03:26:35;;;;;;;14.13;7.10;;;;;;;-5.94;100.00;151076.31;4914848;29;20036;-79
2022/11/19 03:29:06;;;;;;;15.10;7.30;;;;;;;-6.05;100.00;151049.72;4900047;29;20047;-80
2022/11/19 03:31:33;;;;;;;14.57;8.05;;;;;;;-5.99;100.00;151064.97;4909759;29;20048;-79
2022/11/19 03:34:13;;;;;;;15.15;7.70;;;;;;;-5.89;100.00;151090.25;4914670;29;20067;-79
2022/11/19 03:36:45;;;;;;;12.23;6.95;;;;;;;-5.74;100.00;151127.03;4894536;29;20131;-79
2022/11/19 03:39:17;;;;;;;13.25;7.75;;;;;;;-6.01;100.00;151059.88;4885931;29;20522;-79
2022/11/19 03:41:48;;;;;;;13.90;7.87;;;;;;;-5.96;100.00;151072.56;4915392;29;20062;-80
2022/11/19 03:44:19;;;;;;;15.60;7.35;;;;;;;-6.07;100.00;151045.91;4920281;29;20067;-81
2022/11/19 03:46:51;;;;;;;15.27;7.63;;;;;;;-5.90;100.00;151086.44;4930159;29;20060;-79
2022/11/19 03:49:30;;;;;;;14.63;7.67;;;;;;;-6.11;100.00;151035.78;4919421;29;20409;-80
2022/11/19 03:52:09;;;;;;;14.13;7.95;;;;;;;-5.93;100.00;151080.13;4899909;29;20041;-80
2022/11/19 03:54:37;;;;;;;12.10;6.70;;;;;;;-5.87;100.00;151095.34;4918790;29;20107;-80
2022/11/19 03:57:06;;;;;;;16.13;7.88;;;;;;;-5.93;100.00;151080.13;4920139;29;20083;-78
2022/11/19 03:59:33;;;;;;;16.45;7.63;;;;;;;-6.00;100.00;151061.16;4904259;29;20502;-80
2022/11/19 04:02:04;;;;;;;13.65;7.32;;;;;;;-6.24;100.00;151001.59;4919277;29;20036;-80
2022/11/19 04:04:36;;;;;;;13.25;8.00;;;;;;;-6.21;100.00;151009.22;4898875;29;20033;-79
2022/11/19 04:07:07;;;;;;;12.98;7.38;;;;;;;-5.90;100.00;151086.44;4908508;29;20328;-79
2022/11/19 04:09:37;;;;;;;15.52;7.85;;;;;;;-5.99;100.00;151064.97;4897621;29;20044;-79
2022/11/19 04:12:04;;;;;;;15.85;7.30;;;;;;;-5.93;100.00;151078.88;4930712;29;20040;-79
2022/11/19 04:14:30;;;;;;;25.10;8.30;;;;;;;-5.92;100.00;151082.63;4912809;29;20044;-79
2022/11/19 04:16:57;;;;;;;15.10;7.75;;;;;;;-6.00;100.00;151062.41;4908903;29;20035;-79
2022/11/19 04:19:23;;;;;;;15.25;7.10;;;;;;;-5.90;100.00;151086.44;4920721;29;20184;-79
2022/11/19 04:21:50;;;;;;;14.30;8.05;;;;;;;-6.14;100.00;151028.22;4937523;29;20043;-79
2022/11/19 04:24:16;;;;;;;15.23;7.07;;;;;;;-6.13;100.00;151029.47;4915863;29;20036;-79
2022/11/19 04:26:42;;;;;;;12.27;7.15;;;;;;;-6.01;100.00;151058.63;4904397;29;20040;-79
2022/11/19 04:29:08;;;;;;;13.40;7.22;;;;;;;-5.79;100.00;151114.34;4943741;29;20068;-80
2022/11/19 04:31:34;;;;;;;15.73;7.75;;;;;;;-5.84;100.00;151101.66;4915866;29;20043;-80
2022/11/19 04:34:00;;;;;;;13.68;7.00;;;;;;;-5.77;100.00;151119.41;4900197;29;20083;-80
2022/11/19 04:36:32;;;;;;;11.95;6.82;;;;;;;-5.94;100.00;151076.31;4890982;29;20126;-79
2022/11/19 04:38:58;;;;;;;14.40;7.53;;;;;;;-5.84;100.00;151100.41;4908712;29;20044;-80
2022/11/19 04:41:25;;;;;;;11.52;6.57;;;;;;;-5.98;100.00;151066.22;4911825;29;20044;-80
2022/11/19 04:43:51;;;;;;;15.60;7.40;;;;;;;-5.98;100.00;151067.50;4950063;29;20050;-81
2022/11/19 04:46:20;;;;;;;14.18;7.28;;;;;;;-5.97;100.00;151070.03;4954412;29;20088;-80
2022/11/19 04:48:47;;;;;;;14.45;7.45;;;;;;;-6.08;100.00;151043.41;4934643;28;20029;-80
2022/11/19 05:00:01;;;;;;;15.80;6.38;;;;;;;-5.65;100.00;151147.31;4938987;29;20065;-81
2022/11/19 05:02:26;;;;;;;14.40;6.70;;;;;;;-5.64;100.00;151149.88;4917423;29;20068;-76
2022/11/19 05:04:52;;;;;;;23.55;7.65;;;;;;;-5.64;100.00;151149.88;4936063;29;20090;-76
2022/11/19 05:07:18;;;;;;;12.57;6.82;;;;;;;-5.63;100.00;151153.69;4946328;28;20047;-75
2022/11/19 05:09:43;;;;;;;11.65;6.30;;;;;;;-5.59;100.00;151162.56;4922027;29;20133;-76
2022/11/19 05:12:09;;;;;;;13.10;6.80;;;;;;;-5.52;100.00;151180.28;4908258;29;20024;-76
2022/11/19 05:14:37;;;;;;;12.50;6.55;;;;;;;-5.55;100.00;151172.69;4940097;29;20040;-77
2022/11/19 05:17:03;;;;;;;13.80;6.82;;;;;;;-5.58;100.00;151165.06;4900018;29;20095;-76
2022/11/19 05:19:29;;;;;;;17.13;7.47;;;;;;;-5.64;100.00;151149.88;4916195;29;20062;-76
2022/11/19 05:21:54;;;;;;;15.20;7.38;;;;;;;-5.65;100.00;151148.59;4940892;29;20432;-76
2022/11/19 05:24:20;;;;;;;13.27;6.05;;;;;;;-5.64;100.00;151151.13;4924986;29;20473;-76
2022/11/19 05:26:46;;;;;;;14.82;7.38;;;;;;;-5.67;100.00;151144.78;4933478;29;20447;-76
2022/11/19 05:29:11;;;;;;;15.38;7.05;;;;;;;-5.69;100.00;151138.44;4936932;28;20492;-75
2022/11/19 05:31:37;;;;;;;12.43;7.30;;;;;;;-5.73;100.00;151128.28;4926666;29;20488;-76
2022/11/19 05:34:02;;;;;;;12.70;6.78;;;;;;;-5.75;100.00;151123.22;4923716;29;20118;-78
2022/11/19 05:36:28;;;;;;;13.73;6.57;;;;;;;-5.75;100.00;151123.22;4931165;28;20532;-76
2022/11/19 05:38:54;;;;;;;20.30;8.57;;;;;;;-5.77;100.00;151119.41;4922440;28;20038;-76
2022/11/19 05:41:19;;;;;;;13.38;7.35;;;;;;;-5.84;100.00;151101.66;4931115;29;20039;-76
2022/11/19 05:43:44;;;;;;;12.27;7.00;;;;;;;-5.83;100.00;151102.97;4911563;29;20043;-76
2022/11/19 05:46:10;;;;;;;17.17;7.20;;;;;;;-5.85;100.00;151099.16;4927593;29;20125;-76
2022/11/19 05:48:36;;;;;;;12.38;6.70;;;;;;;-5.91;100.00;151085.19;4930748;29;20035;-76
2022/11/19 05:51:01;;;;;;;13.13;7.22;;;;;;;-5.87;100.00;151094.06;4917373;29;20122;-75
2022/11/19 05:53:27;;;;;;;14.80;7.05;;;;;;;-5.83;100.00;151104.22;4922764;29;20046;-78
2022/11/19 05:55:55;;;;;;;14.70;7.25;;;;;;;-5.73;100.00;151128.28;4917364;29;20122;-76
2022/11/19 05:58:21;;;;;;;15.15;6.85;;;;;;;-5.63;100.00;151153.69;4900802;29;20656;-76
2022/11/19 06:00:47;;;;;;;12.05;7.18;;;;;;;-5.47;100.00;151194.22;4935147;29;20082;-75
2022/11/19 06:03:12;;;;;;;13.25;7.75;;;;;;;-5.26;100.00;151243.72;4956996;28;20038;-76
2022/11/19 06:05:38;;;;;;;16.15;7.10;;;;;;;-5.21;100.00;151257.66;4935835;28;20114;-76
2022/11/19 06:08:04;;;;;;;14.10;8.00;;;;;;;-5.16;100.00;151270.34;4930269;29;20039;-75
2022/11/19 06:10:30;;;;;;;13.65;7.45;;;;;;;-5.15;100.00;151272.88;4937417;29;20710;-75
2022/11/19 06:12:56;;;;;;;17.40;7.53;;;;;;;-5.16;100.00;151270.34;4932296;28;20046;-76
2022/11/19 06:15:22;;;;;;;15.02;7.78;;;;;;;-5.15;100.00;151271.63;4952384;28;20166;-77
2022/11/19 06:17:47;;;;;;;17.52;7.38;;;;;;;-5.10;100.00;151285.56;4927338;29;20408;-75
2022/11/19 06:20:13;;;;;;;15.75;8.40;;;;;;;-5.13;100.00;151277.94;4909605;28;20086;-75
2022/11/19 06:22:39;;;;;;;13.20;7.32;;;;;;;-5.20;100.00;151258.91;4927336;29;20027;-76
2022/11/19 06:25:06;;;;;;;17.58;8.30;;;;;;;-5.27;100.00;151242.44;4929276;29;20484;-76
2022/11/19 06:27:32;;;;;;;14.32;7.43;;;;;;;-5.34;100.00;151224.69;4899831;29;20698;-75
2022/11/19 06:29:58;;;;;;;17.77;8.32;;;;;;;-5.40;100.00;151209.47;4926228;29;20035;-75
2022/11/19 06:32:23;;;;;;;12.70;7.57;;;;;;;-5.48;100.00;151191.72;4941441;29;20478;-76
2022/11/19 06:34:49;;;;;;;12.45;7.82;;;;;;;-5.52;100.00;151180.28;4939646;29;20445;-76
2022/11/19 06:37:14;;;;;;;13.82;7.47;;;;;;;-5.55;100.00;151173.94;4924187;29;20432;-77
2022/11/19 06:39:40;;;;;;;16.63;7.63;;;;;;;-5.57;100.00;151168.88;4945733;28;20031;-75
2022/11/19 06:44:50;;;;;;;14.50;7.60;;;;;;;-5.64;100.00;151149.88;4927596;29;20116;-76
2022/11/19 06:47:15;;;;;;;12.07;7.13;;;;;;;-5.70;100.00;151135.91;4939139;29;20035;-76
2022/11/19 06:49:41;;;;;;;12.65;7.20;;;;;;;-5.60;100.00;151160.00;4913496;29;20063;-75
2022/11/19 06:52:07;;;;;;;12.85;6.93;;;;;;;-5.60;100.00;151161.25;4953899;28;20035;-76
2022/11/19 06:54:32;;;;;;;12.68;7.05;;;;;;;-5.58;100.00;151165.06;4921321;29;20032;-75
2022/11/19 06:56:58;;;;;;;13.60;7.05;;;;;;;-5.48;100.00;151191.72;4934140;29;20852;-76
2022/11/19 06:59:24;;;;;;;14.65;7.65;;;;;;;-5.36;100.00;151219.63;4916346;29;20081;-79
2022/11/19 07:01:49;;;;;;;18.50;7.82;;;;;;;-5.31;100.00;151232.31;4935421;29;20031;-75
2022/11/19 07:04:15;;;;;;;16.20;7.47;;;;;;;-5.31;100.00;151233.56;4923826;29;20488;-76
2022/11/19 07:06:41;;;;;;;13.55;7.47;;;;;;;-5.32;100.00;151229.75;4946971;28;20042;-76
2022/11/19 07:09:07;;;;;;;13.32;7.88;;;;;;;-5.33;100.00;151228.50;4935170;28;20031;-76
2022/11/19 07:11:34;;;;;;;14.77;7.70;;;;;;;-5.29;100.00;151238.63;4933144;29;20404;-75
2022/11/19 07:14:02;;;;;;;12.85;7.65;;;;;;;-5.24;100.00;151248.78;4939479;29;20066;-76
2022/11/19 07:16:33;;;;;;;15.82;7.57;;;;;;;-5.22;100.00;151255.09;4944452;28;21058;-75
2022/11/19 07:19:01;;;;;;;13.32;7.28;;;;;;;-5.22;100.00;151253.84;4948549;28;20515;-76
2022/11/19 07:21:28;;;;;;;15.68;7.95;;;;;;;-5.20;100.00;151258.91;4941674;28;20497;-76
2022/11/19 07:23:55;;;;;;;14.35;7.97;;;;;;;-5.22;100.00;151255.09;4932220;28;20506;-76
2022/11/19 07:26:21;;;;;;;13.52;7.00;;;;;;;-5.11;100.00;151281.75;4918351;28;20535;-75
2022/11/19 07:28:47;;;;;;;12.15;7.13;;;;;;;-4.86;100.00;151342.66;4916064;29;20035;-75
2022/11/19 07:31:12;;;;;;;14.05;7.72;;;;;;;-5.02;100.00;151304.59;4933318;29;20035;-76
2022/11/19 07:33:39;;;;;;;15.15;7.28;;;;;;;-4.97;100.00;151317.28;4932842;29;20065;-76
2022/11/19 07:36:10;;;;;;;12.38;6.57;;;;;;;-4.90;100.00;151335.06;4927580;29;20052;-75
2022/11/19 07:38:36;;;;;;;13.88;7.07;;;;;;;-4.82;100.00;151354.09;4914114;29;20031;-77
2022/11/19 07:42:47;;;;;;;11.48;6.65;;;;;;;-4.73;100.00;151375.63;4924710;29;20031;-75
2022/11/19 07:43:48;;;;;;;14.43;6.88;;;;;;;-4.60;100.00;151407.38;4927220;29;20485;-76
2022/11/19 07:46:14;;;;;;;14.30;8.05;;;;;;;-4.56;100.00;151418.81;4940459;28;20088;-76
2022/11/19 07:48:39;;;;;;;13.02;7.15;;;;;;;-4.45;100.00;151445.44;4895375;29;20031;-76
2022/11/19 07:51:05;;;;;;;13.50;6.63;;;;;;;-4.30;100.00;151482.25;4904206;29;20035;-75
2022/11/19 07:53:30;;;;;;;13.30;7.65;;;;;;;-4.26;100.00;151492.41;4932013;29;20044;-77
2022/11/19 07:55:59;;;;;;;13.68;7.72;;;;;;;-4.10;100.00;151531.78;4924229;29;20582;-76
2022/11/19 07:58:24;;;;;;;14.70;7.93;;;;;;;-4.00;100.00;151555.91;4933074;29;20557;-77
2022/11/19 08:00:50;;;;;;;15.32;8.32;;;;;;;-3.89;100.00;151582.56;4927741;29;20036;-75
2022/11/19 08:03:16;;;;;;;15.13;8.38;;;;;;;-3.76;100.00;151615.59;4948718;28;20063;-76
2022/11/19 08:05:41;;;;;;;15.50;8.60;;;;;;;-3.62;100.00;151649.84;4924581;29;20047;-76
2022/11/19 08:08:07;;;;;;;12.80;7.97;;;;;;;-3.45;100.00;151691.78;4959119;28;20039;-75
2022/11/19 08:10:33;;;;;;;15.38;9.02;;;;;;;-3.33;100.00;151722.28;4934083;28;20034;-75
2022/11/19 08:13:02;;;;;;;15.20;9.40;;;;;;;-3.20;100.00;151755.31;4941890;28;20073;-76
2022/11/19 08:15:29;;;;;;;15.75;9.18;;;;;;;-3.06;100.00;151788.34;4952635;28;20091;-76
2022/11/19 08:18:14;;;;;;;17.48;9.82;;;;;;;-2.91;100.00;151825.19;4952725;28;20522;-75
2022/11/19 08:20:43;;;;;;;19.30;9.82;;;;;;;-2.75;100.00;151867.13;4903179;29;20039;-75
2022/11/19 08:23:09;;;;;;;16.45;9.57;;;;;;;-2.62;100.00;151897.63;4921681;28;20038;-76
2022/11/19 08:25:35;;;;;;;17.00;10.02;;;;;;;-2.56;100.00;151912.91;4912059;29;20393;-75
2022/11/19 08:28:02;;;;;;;15.48;10.43;;;;;;;-2.48;100.00;151931.97;4916056;29;20507;-75
2022/11/19 08:30:29;;;;;;;14.18;9.15;;;;;;;-2.41;100.00;151949.72;4935354;29;20078;-76
2022/11/19 08:32:55;;;;;;;16.27;9.80;;;;;;;-2.33;100.00;151970.09;4940259;28;20069;-75
2022/11/19 08:35:21;;;;;;;16.25;10.00;;;;;;;-2.26;100.00;151987.91;4916629;29;20071;-75
2022/11/19 08:37:47;;;;;;;15.88;8.90;;;;;;;-2.22;100.00;151996.81;4928650;29;20035;-76
2022/11/19 08:40:13;;;;;;;15.50;9.75;;;;;;;-2.07;100.00;152034.94;4918845;29;20043;-75
2022/11/19 08:45:25;;;;;;;14.43;8.43;;;;;;;-1.86;100.00;152087.06;4935231;28;20038;-75
2022/11/19 08:47:51;;;;;;;11.95;7.80;;;;;;;-1.76;100.00;152112.50;4909397;29;20125;-75
2022/11/19 08:50:17;;;;;;;9.77;7.18;;;;;;;-1.62;100.00;152146.88;4939440;29;20563;-75
2022/11/19 08:52:43;;;;;;;13.20;7.18;;;;;;;-1.49;100.00;152177.38;4954727;28;20042;-75
2022/11/19 08:55:09;;;;;;;13.75;7.10;;;;;;;-1.42;100.00;152196.44;4948298;28;20165;-75
2022/11/19 08:57:34;;;;;;;10.73;6.90;;;;;;;-1.30;100.00;152225.75;4932735;28;20042;-75
2022/11/19 09:00:00;;;;;;;9.82;6.80;;;;;;;-1.29;100.00;152228.25;4937700;29;20041;-75
2022/11/19 09:02:25;;;;;;;11.75;6.82;;;;;;;-1.29;100.00;152227.00;4922811;29;20551;-76
2022/11/19 09:04:52;;;;;;;12.27;6.50;;;;;;;-1.22;100.00;152246.09;4928579;29;20058;-76
2022/11/19 09:07:17;;;;;;;11.75;6.65;;;;;;;-1.23;100.00;152242.25;4916420;29;20054;-76
2022/11/19 09:09:43;;;;;;;13.18;6.45;;;;;;;-1.24;100.00;152239.75;4921460;29;20039;-76
2022/11/19 09:12:08;;;;;;;11.38;7.13;;;;;;;-1.20;100.00;152249.91;4915679;29;20048;-76
2022/11/19 09:14:34;;;;;;;10.40;7.13;;;;;;;-1.13;100.00;152267.72;4940515;29;20649;-76
2022/11/19 09:17:00;;;;;;;11.38;6.80;;;;;;;-1.18;100.00;152256.25;4911605;28;20039;-76
2022/11/19 09:19:26;;;;;;;9.57;6.80;;;;;;;-1.10;100.00;152274.06;4919758;29;20031;-76
2022/11/19 09:21:51;;;;;;;9.93;6.55;;;;;;;-0.96;100.00;152309.72;4906400;29;20043;-76
2022/11/19 09:24:17;;;;;;;15.27;6.80;;;;;;;-0.91;100.00;152321.16;4918236;29;20030;-76
2022/11/19 09:26:43;;;;;;;10.23;6.88;;;;;;;-0.85;100.00;152337.72;4922290;29;20130;-76
2022/11/19 09:29:08;;;;;;;10.88;6.22;;;;;;;-0.80;100.00;152349.16;4936442;29;20039;-77
2022/11/19 09:31:34;;;;;;;9.63;6.55;;;;;;;-0.72;100.00;152368.25;4935609;29;20027;-76
2022/11/19 09:34:00;;;;;;;7.45;6.10;;;;;;;-0.68;100.00;152379.72;4917556;28;20058;-76
2022/11/19 09:36:25;;;;;;;12.15;7.00;;;;;;;-0.65;100.00;152387.34;4948142;28;20044;-76
2022/11/19 09:38:56;;;;;;;11.10;6.75;;;;;;;-0.54;100.00;152412.81;4936436;28;20043;-75
2022/11/19 09:41:22;;;;;;;8.20;5.65;;;;;;;-0.44;100.00;152439.53;4909758;28;20074;-76
2022/11/19 09:43:57;;;;;;;9.52;5.95;;;;;;;-0.43;100.00;152442.09;4943582;28;20035;-76
2022/11/19 09:46:40;;;;;;;7.47;5.57;;;;;;;-0.40;100.00;152448.44;4941069;28;20046;-76
2022/11/19 09:49:33;;;;;;;9.05;5.78;;;;;;;-0.40;100.00;152449.75;4949064;28;20047;-76
2022/11/19 09:52:05;;;;;;;11.07;6.10;;;;;;;-0.37;100.00;152456.09;4915967;29;20031;-76
2022/11/19 09:54:32;;;;;;;9.95;5.90;;;;;;;-0.27;100.00;152480.28;4920125;28;20047;-76
2022/11/19 09:57:08;;;;;;;7.75;5.90;;;;;;;-0.20;100.00;152498.13;4940311;28;20092;-75
2022/11/19 09:59:38;;;;;;;9.50;6.15;;;;;;;-0.10;100.00;152523.56;4934611;29;20699;-76
2022/11/19 10:02:16;;;;;;;7.47;5.53;;;;;;;0.04;100.00;152556.69;4932983;29;20829;-75
2022/11/19 10:04:41;;;;;;;7.30;5.00;;;;;;;0.18;100.00;152592.38;4956219;28;20023;-75
2022/11/19 10:07:32;;;;;;;10.68;5.25;;;;;;;0.28;100.00;152617.81;4939635;29;20057;-75
2022/11/19 10:10:17;;;;;;;10.80;4.88;;;;;;;0.36;100.00;152636.97;4929435;29;20040;-75
2022/11/19 10:12:54;;;;;;;8.90;5.13;;;;;;;0.44;100.00;152656.06;4942490;28;20041;-75
2022/11/19 10:15:19;;;;;;;8.23;5.43;;;;;;;0.47;100.00;152665.00;4932147;29;20134;-75
2022/11/19 10:18:06;;;;;;;8.20;5.40;;;;;;;0.52;100.00;152677.69;4941461;28;20453;-75
2022/11/19 10:20:35;;;;;;;7.68;4.95;;;;;;;0.61;100.00;152698.13;4921248;28;20062;-75
2022/11/19 10:23:34;;;;;;;7.15;4.85;;;;;;;0.68;100.00;152717.22;4940802;29;20039;-75
2022/11/19 10:26:10;;;;;;;10.70;5.50;;;;;;;0.81;100.00;152747.78;4950157;28;20038;-75
2022/11/19 10:28:39;;;;;;;5.75;4.85;;;;;;;0.91;100.00;152773.28;4912890;28;20045;-75
2022/11/19 10:31:11;;;;;;;10.38;4.95;;;;;;;0.98;100.00;152791.16;4927242;29;20119;-75
2022/11/19 10:34:19;;;;;;;9.10;4.93;;;;;;;1.12;100.00;152826.81;4900323;29;20097;-75
2022/11/19 10:36:49;;;;;;;8.60;5.05;;;;;;;1.25;100.00;152857.41;4869184;29;20044;-75
2022/11/19 10:39:27;;;;;;;8.68;4.85;;;;;;;1.35;100.00;152882.91;4868180;29;20069;-75
2022/11/19 10:42:00;;;;;;;8.88;5.00;;;;;;;1.59;100.00;152941.56;4896506;29;20514;-75
2022/11/19 10:44:39;;;;;;;;;;;;;;;1.64;100.00;152955.59;4918885;29;20047;-76
2022/11/19 10:47:30;;;;;;;6.97;4.60;;;;;;;1.77;100.00;152986.16;4945579;28;20393;-75
2022/11/19 10:49:56;;;;;;;8.80;5.22;;;;;;;1.86;100.00;153009.13;4910248;28;20054;-75
2022/11/19 10:52:28;;;;;;;8.82;5.15;;;;;;;2.03;100.00;153051.22;4919018;28;21092;-75
2022/11/19 10:54:59;;;;;;;7.72;4.43;;;;;;;2.04;100.00;153055.06;4931782;29;20114;-75
2022/11/19 10:57:30;;;;;;;8.48;4.47;;;;;;;1.98;100.00;153038.44;4924823;29;20051;-75
2022/11/19 10:59:56;;;;;;;9.63;4.88;;;;;;;2.05;100.00;153056.31;4921406;29;20130;-75
2022/11/19 11:02:35;;;;;;;15.55;5.05;;;;;;;1.98;100.00;153038.44;4927473;29;20118;-75
2022/11/19 11:05:11;;;;;;;6.85;4.35;;;;;;;2.00;100.00;153043.56;4943612;28;20031;-75
2022/11/19 11:07:44;;;;;;;6.93;3.80;;;;;;;1.95;100.00;153032.09;4921370;29;20035;-75
2022/11/19 11:10:34;;;;;;;8.23;4.18;;;;;;;1.96;100.00;153034.66;4915675;29;20046;-75
2022/11/19 11:16:18;;;;;;;5.05;3.67;;;;;;;1.96;100.00;153034.66;4943765;28;20086;-75
2022/11/19 11:18:45;;;;;;;7.40;4.00;;;;;;;2.00;100.00;153044.84;4936229;28;20027;-74
2022/11/19 11:21:35;;;;;;;4.80;4.13;;;;;;;2.01;100.00;153046.13;4934314;29;20036;-75
2022/11/19 11:24:03;;;;;;;6.68;3.92;;;;;;;2.07;100.00;153062.72;4921343;28;20038;-75
2022/11/19 11:26:32;;;;;;;6.60;3.65;;;;;;;2.20;100.00;153094.56;4953660;28;20054;-75
2022/11/19 11:29:13;;;;;;;7.35;4.00;;;;;;;2.27;100.00;153112.44;4959109;28;20488;-75
2022/11/19 11:31:44;;;;;;;7.07;3.90;;;;;;;2.38;100.00;153139.25;4948467;28;20042;-76
2022/11/19 11:34:25;;;;;;;6.90;3.92;;;;;;;2.40;100.00;153143.09;4928458;29;20070;-75
2022/11/19 11:36:51;;;;;;;4.13;3.55;;;;;;;2.42;100.00;153149.44;4940851;28;20058;-75
2022/11/19 11:39:33;;;;;;;5.63;3.97;;;;;;;2.51;100.00;153172.41;4910719;29;20098;-75
2022/11/19 11:42:00;;;;;;;6.00;4.07;;;;;;;2.54;100.00;153178.78;4942128;28;20042;-75
2022/11/19 11:44:28;;;;;;;7.05;4.10;;;;;;;2.57;100.00;153185.19;4914744;29;20063;-76
2022/11/19 11:47:11;;;;;;;5.20;3.90;;;;;;;2.68;100.00;153213.25;4932704;28;20047;-76
2022/11/19 11:49:44;;;;;;;6.50;4.10;;;;;;;2.63;100.00;153200.50;4938231;28;20054;-75
2022/11/19 11:52:09;;;;;;;;;;;;;;;2.60;100.00;153194.13;4920749;29;20110;-75
2022/11/19 11:54:55;;;;;;;6.45;4.13;;;;;;;2.65;100.00;153206.84;4929048;29;20069;-76